Time;durP1;ratioP1;P1;durP2;ratioP2;P2;SDS_P1;SDS_P2;PMS_P1;PMS_P2;Temp;Humidity;BMP_temperature;BMP_pressure;BME280_temperature;BME280_humidity;BME280_pressure;Samples;Min_cycle;Max_cycle;Signal;HPM_P1;HPM_P2
2023/11/11 00:04:44;;;;;;;1.63;1.53;;;9.10;99.90;;;;;;10301906;28;20690;-77
2023/11/11 00:10:09;;;;;;;2.00;1.80;;;9.20;99.90;;;;;;10296255;28;20227;-77
2023/11/11 00:15:32;;;;;;;1.90;1.70;;;9.20;99.90;;;;;;10293430;28;20596;-77
2023/11/11 00:20:53;;;;;;;1.87;1.77;;;9.20;99.90;;;;;;10314044;23;20309;-79
2023/11/11 00:26:13;;;;;;;2.40;1.80;;;9.20;99.90;;;;;;10336683;28;20219;-78
2023/11/11 00:31:37;;;;;;;1.60;1.50;;;9.30;99.90;;;;;;10307848;28;20223;-79
2023/11/11 00:36:58;;;;;;;1.77;1.67;;;9.30;99.90;;;;;;10315129;28;20187;-79
2023/11/11 00:42:19;;;;;;;1.70;1.60;;;9.30;99.90;;;;;;10303368;28;20251;-79
2023/11/11 00:47:41;;;;;;;1.60;1.50;;;9.30;99.90;;;;;;10321238;28;20207;-79
2023/11/11 00:53:02;;;;;;;1.40;1.40;;;9.40;99.90;;;;;;10302342;28;20220;-77
2023/11/11 00:58:23;;;;;;;1.80;1.70;;;9.40;99.90;;;;;;10311680;28;20705;-79
2023/11/11 01:03:44;;;;;;;1.67;1.57;;;9.30;99.90;;;;;;10306733;28;20343;-79
2023/11/11 01:09:06;;;;;;;1.50;1.50;;;9.30;99.90;;;;;;10311106;28;20199;-79
2023/11/11 01:14:27;;;;;;;1.63;1.53;;;9.20;99.90;;;;;;10303117;28;20219;-78
2023/11/11 01:19:49;;;;;;;1.73;1.60;;;9.20;99.90;;;;;;10332862;28;20195;-79
2023/11/11 01:25:12;;;;;;;1.50;1.40;;;9.20;99.90;;;;;;10302033;28;20330;-79
2023/11/11 01:30:34;;;;;;;2.13;2.03;;;9.30;99.90;;;;;;10320399;28;20596;-79
2023/11/11 01:36:00;;;;;;;1.63;1.53;;;9.40;99.90;;;;;;10296217;28;20274;-79
2023/11/11 01:41:20;;;;;;;1.70;1.60;;;9.40;99.90;;;;;;10320812;28;20219;-79
2023/11/11 01:46:41;;;;;;;1.33;1.33;;;9.50;99.90;;;;;;10328825;28;20685;-80
2023/11/11 01:52:04;;;;;;;1.37;1.27;;;9.60;99.90;;;;;;10289553;28;20215;-79
2023/11/11 01:57:26;;;;;;;1.50;1.40;;;9.70;99.90;;;;;;10310912;28;20290;-80
2023/11/11 02:02:47;;;;;;;1.20;1.20;;;9.80;99.90;;;;;;10288537;28;20317;-80
2023/11/11 02:08:10;;;;;;;1.20;1.20;;;9.80;99.90;;;;;;10318917;28;20211;-79
2023/11/11 02:13:34;;;;;;;1.37;1.37;;;9.80;99.90;;;;;;10294705;28;20211;-80
2023/11/11 02:18:55;;;;;;;1.37;1.27;;;9.80;99.90;;;;;;10306782;28;20200;-79
2023/11/11 02:24:18;;;;;;;1.63;1.37;;;9.90;99.90;;;;;;10327478;28;20704;-80
2023/11/11 02:29:45;;;;;;;1.47;1.40;;;9.90;99.90;;;;;;10302563;28;20199;-80
2023/11/11 02:35:06;;;;;;;1.30;1.20;;;9.80;99.90;;;;;;10326672;28;20219;-80
2023/11/11 02:40:27;;;;;;;1.23;1.13;;;9.80;99.40;;;;;;10296991;28;20336;-79
2023/11/11 02:45:48;;;;;;;1.77;1.67;;;9.80;99.90;;;;;;10317958;28;20223;-79
2023/11/11 02:51:09;;;;;;;1.57;1.57;;;9.70;99.90;;;;;;10307108;28;20220;-80
2023/11/11 02:56:31;;;;;;;1.53;1.43;;;9.60;99.90;;;;;;10321839;28;20263;-80
2023/11/11 03:01:51;;;;;;;2.20;2.10;;;9.40;99.90;;;;;;10305705;28;20216;-79
2023/11/11 03:07:12;;;;;;;1.70;1.70;;;9.30;99.90;;;;;;10340575;28;20222;-80
2023/11/11 03:12:34;;;;;;;2.17;2.03;;;9.20;99.90;;;;;;10302797;28;20227;-79
2023/11/11 03:17:55;;;;;;;1.90;1.90;;;9.10;99.90;;;;;;10329352;28;20282;-80
2023/11/11 03:23:15;;;;;;;2.03;1.93;;;9.10;99.90;;;;;;10342857;28;20228;-79
2023/11/11 03:28:38;;;;;;;1.83;1.80;;;9.30;99.90;;;;;;10294561;28;20649;-80
2023/11/11 03:33:59;;;;;;;2.03;1.93;;;9.30;99.90;;;;;;10331246;28;20212;-80
2023/11/11 03:39:19;;;;;;;1.90;1.90;;;9.40;99.90;;;;;;10308175;28;20199;-80
2023/11/11 03:44:41;;;;;;;2.10;1.93;;;9.50;99.90;;;;;;10350988;28;20302;-79
2023/11/11 03:50:02;;;;;;;1.60;1.60;;;9.50;99.90;;;;;;10306781;28;20204;-78
2023/11/11 03:55:23;;;;;;;1.80;1.80;;;9.60;99.90;;;;;;10316619;28;20664;-78
2023/11/11 04:00:45;;;;;;;2.10;2.00;;;9.60;99.90;;;;;;10317074;28;20633;-77
2023/11/11 04:06:05;;;;;;;1.93;1.83;;;9.60;99.90;;;;;;10305855;28;20247;-79
2023/11/11 04:11:27;;;;;;;2.13;1.80;;;9.60;99.90;;;;;;10297693;28;20224;-78
2023/11/11 04:16:50;;;;;;;1.43;1.43;;;9.60;99.90;;;;;;10326673;28;20199;-79
2023/11/11 04:22:10;;;;;;;1.93;1.83;;;9.60;99.90;;;;;;10311560;28;20250;-78
2023/11/11 04:27:31;;;;;;;2.40;2.20;;;9.60;99.90;;;;;;10304224;28;20239;-78
2023/11/11 04:32:53;;;;;;;2.60;2.50;;;9.60;99.90;;;;;;10316437;28;20580;-78
2023/11/11 04:38:13;;;;;;;3.10;3.00;;;9.50;99.90;;;;;;10300038;28;20229;-77
2023/11/11 04:43:34;;;;;;;3.47;3.30;;;9.40;99.90;;;;;;10319128;28;20215;-76
2023/11/11 04:48:56;;;;;;;3.27;3.10;;;9.30;99.90;;;;;;10321329;28;20206;-78
2023/11/11 04:54:17;;;;;;;3.10;2.90;;;9.20;99.90;;;;;;10297937;28;20298;-78
2023/11/11 04:59:37;;;;;;;3.10;3.00;;;9.10;99.90;;;;;;10336248;28;20191;-78
2023/11/11 05:04:59;;;;;;;4.50;3.03;;;9.10;99.90;;;;;;10329020;28;20235;-78
2023/11/11 05:10:22;;;;;;;2.63;2.53;;;9.10;99.90;;;;;;10303839;28;20223;-78
2023/11/11 05:15:45;;;;;;;2.77;2.67;;;9.10;99.90;;;;;;10326672;28;20191;-79
2023/11/11 05:21:08;;;;;;;2.70;2.60;;;9.10;99.90;;;;;;10311628;28;20254;-78
2023/11/11 05:26:29;;;;;;;2.53;2.43;;;9.20;99.90;;;;;;10319760;28;20250;-77
2023/11/11 05:31:49;;;;;;;3.23;2.93;;;9.20;99.90;;;;;;10312807;28;20547;-78
2023/11/11 05:37:11;;;;;;;2.67;2.57;;;9.10;99.90;;;;;;10315525;28;20195;-78
2023/11/11 05:42:32;;;;;;;2.30;2.20;;;9.10;99.90;;;;;;10317277;28;20622;-78
2023/11/11 05:47:52;;;;;;;2.30;2.20;;;9.00;99.90;;;;;;10294697;28;20207;-78
2023/11/11 05:53:14;;;;;;;2.97;2.77;;;9.10;99.90;;;;;;10320348;28;20598;-78
2023/11/11 05:58:35;;;;;;;2.80;2.60;;;9.00;99.90;;;;;;10334989;28;20203;-78
2023/11/11 06:03:56;;;;;;;2.60;2.50;;;9.00;99.90;;;;;;10304217;28;20220;-78
2023/11/11 06:09:19;;;;;;;2.40;2.30;;;9.00;99.90;;;;;;10327604;28;20664;-78
2023/11/11 06:14:39;;;;;;;2.63;2.53;;;9.00;99.90;;;;;;10299103;28;20211;-78
2023/11/11 06:20:00;;;;;;;2.57;2.37;;;9.10;99.90;;;;;;10334883;28;20203;-79
2023/11/11 06:25:22;;;;;;;2.30;2.20;;;9.20;99.90;;;;;;10294811;28;20689;-78
2023/11/11 06:30:43;;;;;;;2.53;2.40;;;9.20;99.90;;;;;;10296157;28;20232;-77
2023/11/11 06:36:07;;;;;;;2.77;2.57;;;9.20;99.90;;;;;;10338894;28;20191;-79
2023/11/11 06:41:29;;;;;;;2.67;2.57;;;9.30;99.90;;;;;;10329456;28;20211;-78
2023/11/11 06:46:50;;;;;;;2.33;2.10;;;9.30;99.90;;;;;;10301806;28;20219;-78
2023/11/11 06:52:10;;;;;;;2.53;2.43;;;9.30;99.90;;;;;;10326940;28;20216;-78
2023/11/11 06:57:32;;;;;;;2.60;2.03;;;9.40;99.90;;;;;;10308023;28;20195;-80
2023/11/11 07:02:55;;;;;;;2.03;1.93;;;9.40;99.90;;;;;;10331195;28;20227;-78
2023/11/11 07:08:16;;;;;;;2.30;2.20;;;9.50;99.90;;;;;;10316933;28;20211;-79
2023/11/11 07:13:37;;;;;;;1.83;1.73;;;9.50;99.90;;;;;;10307617;28;20235;-78
2023/11/11 07:18:58;;;;;;;2.10;1.93;;;9.60;99.90;;;;;;10324647;28;20561;-78
2023/11/11 07:24:19;;;;;;;2.60;2.40;;;9.60;99.90;;;;;;10317535;28;20222;-79
2023/11/11 07:29:41;;;;;;;2.20;2.10;;;9.70;99.90;;;;;;10311088;28;20202;-79
2023/11/11 07:35:02;;;;;;;2.50;2.40;;;9.80;99.90;;;;;;10314043;28;20191;-78
2023/11/11 07:40:24;;;;;;;1.47;1.37;;;9.80;99.90;;;;;;10329930;28;20242;-78
2023/11/11 07:45:48;;;;;;;1.53;1.43;;;9.80;99.90;;;;;;10308141;28;20243;-78
2023/11/11 07:51:10;;;;;;;1.67;1.57;;;9.80;99.90;;;;;;10335070;28;20223;-79
2023/11/11 07:56:34;;;;;;;1.83;1.73;;;9.70;99.90;;;;;;10309480;28;20208;-78
2023/11/11 08:01:58;;;;;;;2.00;1.90;;;9.70;99.90;;;;;;10339899;28;20214;-79
2023/11/11 08:07:20;;;;;;;1.93;1.70;;;9.70;99.90;;;;;;10338527;28;20219;-78
2023/11/11 08:12:40;;;;;;;2.20;2.00;;;9.70;99.90;;;;;;10335845;28;20219;-79
2023/11/11 08:18:03;;;;;;;2.40;2.00;;;9.70;99.90;;;;;;10290853;28;20226;-79
2023/11/11 08:23:24;;;;;;;2.60;2.07;;;9.70;99.90;;;;;;10307336;28;20223;-78
2023/11/11 08:28:45;;;;;;;2.10;2.00;;;9.80;99.90;;;;;;10329775;28;20200;-78
2023/11/11 08:34:07;;;;;;;2.10;2.00;;;9.80;99.90;;;;;;10310180;28;20677;-79
2023/11/11 08:39:27;;;;;;;2.00;1.90;;;9.80;99.90;;;;;;10332166;28;20207;-78
2023/11/11 08:44:51;;;;;;;2.07;1.97;;;9.90;99.90;;;;;;10330732;28;20333;-79
2023/11/11 08:50:13;;;;;;;3.43;2.87;;;10.10;99.90;;;;;;10321650;28;20279;-78
2023/11/11 08:55:34;;;;;;;2.10;2.00;;;10.20;99.90;;;;;;10323044;28;20289;-79
2023/11/11 09:00:56;;;;;;;3.83;2.60;;;10.40;99.90;;;;;;10314228;28;20242;-79
2023/11/11 09:06:17;;;;;;;2.10;2.00;;;10.50;99.70;;;;;;10324840;28;20211;-79
2023/11/11 09:11:39;;;;;;;2.97;2.00;;;10.60;99.60;;;;;;10336880;28;20215;-78
2023/11/11 09:16:59;;;;;;;4.60;2.23;;;10.80;99.20;;;;;;10310424;28;20685;-78
2023/11/11 09:22:21;;;;;;;3.30;2.30;;;10.80;98.40;;;;;;10299987;28;20326;-78
2023/11/11 09:27:43;;;;;;;2.20;1.90;;;10.80;97.60;;;;;;10342605;28;20598;-78
2023/11/11 09:33:04;;;;;;;2.57;2.37;;;10.80;97.30;;;;;;10331447;28;20222;-79
2023/11/11 09:38:26;;;;;;;3.07;2.07;;;10.80;98.20;;;;;;10330413;28;20203;-81
2023/11/11 09:43:47;;;;;;;2.50;2.13;;;10.80;98.50;;;;;;10332297;28;20223;-81
2023/11/11 09:49:09;;;;;;;2.30;2.10;;;10.90;98.90;;;;;;10295016;28;20292;-78
2023/11/11 09:54:33;;;;;;;2.70;2.10;;;10.80;98.50;;;;;;10331529;28;20206;-80
2023/11/11 09:59:56;;;;;;;2.03;1.80;;;10.70;97.10;;;;;;10310517;28;20200;-78
2023/11/11 10:05:17;;;;;;;1.77;1.67;;;10.50;96.80;;;;;;10284829;28;20224;-78
2023/11/11 10:10:39;;;;;;;2.23;1.90;;;10.50;96.60;;;;;;10331946;28;20227;-79
2023/11/11 10:16:16;;;;;;;1.93;1.83;;;10.60;96.50;;;;;;10323480;28;20196;-80
2023/11/11 10:21:38;;;;;;;2.00;1.90;;;10.70;96.60;;;;;;10311424;28;20823;-79
2023/11/11 10:26:59;;;;;;;3.70;2.17;;;10.80;96.30;;;;;;10313542;28;20219;-80
2023/11/11 10:32:20;;;;;;;3.53;2.40;;;10.90;95.80;;;;;;10316938;28;20219;-79
2023/11/11 10:37:41;;;;;;;1.90;1.80;;;11.00;95.90;;;;;;10314667;28;20196;-79
2023/11/11 10:43:03;;;;;;;2.30;2.13;;;11.00;95.30;;;;;;10327877;28;20301;-79
2023/11/11 10:48:24;;;;;;;6.10;2.73;;;11.00;95.50;;;;;;10312680;28;20219;-79
2023/11/11 10:53:48;;;;;;;1.90;1.80;;;10.90;95.30;;;;;;10332237;28;20222;-79
2023/11/11 10:59:10;;;;;;;3.93;2.20;;;10.90;96.00;;;;;;10308643;28;20208;-78
2023/11/11 11:04:36;;;;;;;2.37;2.17;;;10.90;95.90;;;;;;10336250;28;20301;-78
2023/11/11 11:10:02;;;;;;;2.13;1.83;;;10.90;96.10;;;;;;10285993;28;20208;-78
2023/11/11 11:15:25;;;;;;;2.70;1.70;;;11.00;94.20;;;;;;10301931;28;20208;-78
2023/11/11 11:20:46;;;;;;;1.70;1.60;;;10.90;93.90;;;;;;10338684;28;20242;-78
2023/11/11 11:26:10;;;;;;;2.13;1.80;;;10.80;92.90;;;;;;10333754;28;20215;-78
2023/11/11 11:32:06;;;;;;;1.50;1.40;;;10.70;94.30;;;;;;10306257;28;20250;-78
2023/11/11 11:37:28;;;;;;;2.60;1.87;;;10.70;92.70;;;;;;10324420;28;20666;-78
2023/11/11 11:42:49;;;;;;;2.00;1.90;;;10.60;93.40;;;;;;10315107;28;20663;-78
2023/11/11 11:48:12;;;;;;;1.80;1.70;;;10.60;93.60;;;;;;10319995;28;20216;-78
2023/11/11 11:53:32;;;;;;;1.80;1.70;;;10.70;93.70;;;;;;10325798;28;20215;-78
2023/11/11 11:58:52;;;;;;;3.30;1.70;;;10.80;93.10;;;;;;10311355;28;20184;-77
2023/11/11 12:04:14;;;;;;;2.17;1.97;;;10.80;92.40;;;;;;10323758;28;20696;-79
2023/11/11 12:09:35;;;;;;;1.67;1.57;;;10.90;91.70;;;;;;10313238;28;20219;-78
2023/11/11 12:14:56;;;;;;;2.80;1.40;;;11.00;92.30;;;;;;10309933;28;20227;-78
2023/11/11 12:20:18;;;;;;;2.87;1.70;;;10.90;92.80;;;;;;10314092;28;20243;-79
2023/11/11 12:25:39;;;;;;;2.07;1.97;;;11.10;92.20;;;;;;10329335;28;20309;-79
2023/11/11 12:31:04;;;;;;;2.00;1.90;;;11.30;91.50;;;;;;10298325;28;20223;-78
2023/11/11 12:36:26;;;;;;;2.20;2.00;;;11.30;91.90;;;;;;10318622;28;20195;-78
2023/11/11 12:41:48;;;;;;;2.10;2.00;;;11.30;92.60;;;;;;10294584;28;20219;-77
2023/11/11 12:47:09;;;;;;;2.40;2.20;;;11.20;93.80;;;;;;10335036;28;20219;-78
2023/11/11 12:52:31;;;;;;;2.40;2.23;;;11.20;94.30;;;;;;10331054;28;20216;-78
2023/11/11 12:57:51;;;;;;;2.20;2.00;;;11.10;93.50;;;;;;10302600;28;20191;-78
2023/11/11 13:03:19;;;;;;;2.83;2.50;;;11.10;93.40;;;;;;10326572;28;20314;-80
2023/11/11 13:08:49;;;;;;;2.70;2.50;;;11.20;93.70;;;;;;10311537;28;20664;-78
2023/11/11 13:14:11;;;;;;;3.93;2.10;;;11.10;94.60;;;;;;10318544;28;20306;-78
2023/11/11 13:19:34;;;;;;;2.50;2.10;;;11.00;95.30;;;;;;10307801;28;20673;-78
2023/11/11 13:24:56;;;;;;;2.33;2.13;;;11.10;95.00;;;;;;10313018;28;20235;-78
2023/11/11 13:30:17;;;;;;;2.00;1.87;;;11.00;93.70;;;;;;10316337;28;20213;-78
2023/11/11 13:35:38;;;;;;;2.17;2.07;;;10.90;93.50;;;;;;10307406;28;20294;-77
2023/11/11 13:41:01;;;;;;;4.87;1.80;;;10.90;93.20;;;;;;10319588;28;20226;-78
2023/11/11 13:46:24;;;;;;;2.70;1.93;;;10.90;92.70;;;;;;10305092;28;20212;-77
2023/11/11 13:51:45;;;;;;;2.83;1.60;;;11.00;91.50;;;;;;10324416;28;20211;-78
2023/11/11 13:57:07;;;;;;;2.00;1.90;;;11.10;91.80;;;;;;10300384;28;20196;-78
2023/11/11 14:02:27;;;;;;;2.13;1.90;;;11.20;91.40;;;;;;10316140;28;20223;-78
2023/11/11 14:07:48;;;;;;;2.60;1.80;;;11.30;91.90;;;;;;10293425;28;20220;-77
2023/11/11 14:13:12;;;;;;;4.67;1.90;;;11.20;92.00;;;;;;10337630;28;20222;-78
2023/11/11 14:18:32;;;;;;;2.27;2.10;;;11.30;91.80;;;;;;10303907;28;20192;-77
2023/11/11 14:23:53;;;;;;;1.97;1.80;;;11.30;91.20;;;;;;10325058;28;20558;-78
2023/11/11 14:29:15;;;;;;;2.13;1.73;;;11.30;92.20;;;;;;10291823;28;20227;-80
2023/11/11 14:34:36;;;;;;;2.20;1.97;;;11.30;91.90;;;;;;10332404;28;20216;-78
2023/11/11 14:39:57;;;;;;;1.60;1.50;;;11.30;91.20;;;;;;10312498;28;20653;-77
2023/11/11 14:45:20;;;;;;;2.00;1.90;;;11.30;91.10;;;;;;10312869;28;20212;-78
2023/11/11 14:50:40;;;;;;;2.67;2.07;;;11.20;90.40;;;;;;10300963;28;20223;-80
2023/11/11 14:56:01;;;;;;;2.20;2.10;;;11.20;90.20;;;;;;10324690;28;20199;-78
2023/11/11 15:01:24;;;;;;;2.20;2.10;;;11.10;91.10;;;;;;10322192;28;20994;-77
2023/11/11 15:06:45;;;;;;;2.00;1.90;;;11.10;90.50;;;;;;10320380;28;20220;-78
2023/11/11 15:12:07;;;;;;;2.30;2.10;;;11.00;91.50;;;;;;10333414;28;20214;-74
2023/11/11 15:17:28;;;;;;;2.70;2.50;;;11.00;91.80;;;;;;10316795;28;20207;-78
2023/11/11 15:22:54;;;;;;;4.87;2.20;;;11.00;92.40;;;;;;10326509;28;20680;-78
2023/11/11 15:28:15;;;;;;;2.53;2.10;;;11.00;90.80;;;;;;10294192;28;20220;-78
2023/11/11 15:33:37;;;;;;;1.93;1.83;;;10.90;91.80;;;;;;10296761;28;20216;-78
2023/11/11 15:38:57;;;;;;;2.93;1.60;;;10.90;91.00;;;;;;10295139;28;20188;-78
2023/11/11 15:44:18;;;;;;;1.90;1.60;;;10.90;91.40;;;;;;10297799;28;20298;-77
2023/11/11 15:49:42;;;;;;;1.93;1.80;;;10.80;91.50;;;;;;10341313;28;20578;-76
2023/11/11 15:55:05;;;;;;;1.50;1.40;;;10.80;91.20;;;;;;10336329;28;20565;-77
2023/11/11 16:00:27;;;;;;;1.80;1.70;;;10.60;91.50;;;;;;10299475;28;20696;-77
2023/11/11 16:05:53;;;;;;;1.60;1.47;;;10.50;92.00;;;;;;10330114;28;20583;-77
2023/11/11 16:11:13;;;;;;;3.63;3.27;;;10.40;92.50;;;;;;10304410;28;20708;-76
2023/11/11 16:16:35;;;;;;;2.63;2.43;;;10.30;92.40;;;;;;10323290;28;20208;-77
2023/11/11 16:21:56;;;;;;;3.40;3.10;;;10.20;92.40;;;;;;10305720;28;20230;-77
2023/11/11 16:27:17;;;;;;;2.40;2.20;;;10.00;92.20;;;;;;10317406;28;20212;-77
2023/11/11 16:32:38;;;;;;;3.20;2.90;;;9.80;93.30;;;;;;10308174;28;20215;-76
2023/11/11 16:38:00;;;;;;;2.80;2.60;;;9.60;93.30;;;;;;10313448;28;20195;-76
2023/11/11 16:43:21;;;;;;;3.47;3.17;;;9.50;93.50;;;;;;10293311;28;20220;-77
2023/11/11 16:48:42;;;;;;;6.27;3.10;;;9.30;94.30;;;;;;10316194;28;20306;-77
2023/11/11 16:54:04;;;;;;;2.70;2.30;;;9.20;95.20;;;;;;10337841;28;20238;-77
2023/11/11 16:59:25;;;;;;;7.63;5.80;;;9.20;95.30;;;;;;10326787;28;20203;-77
2023/11/11 17:04:45;;;;;;;8.97;6.70;;;9.10;95.70;;;;;;10302333;28;20694;-76
2023/11/11 17:10:08;;;;;;;5.80;4.60;;;9.00;96.20;;;;;;10324428;28;20210;-78
2023/11/11 17:15:29;;;;;;;3.80;3.50;;;9.00;96.20;;;;;;10332056;28;20564;-78
2023/11/11 17:20:50;;;;;;;4.70;3.47;;;8.90;96.40;;;;;;10294672;28;20262;-77
2023/11/11 17:26:11;;;;;;;3.20;2.90;;;8.90;96.40;;;;;;10329876;28;20218;-78
2023/11/11 17:31:32;;;;;;;3.37;3.13;;;8.80;96.50;;;;;;10291729;28;20216;-77
2023/11/11 17:36:53;;;;;;;3.33;3.03;;;8.80;96.70;;;;;;10331635;28;20199;-77
2023/11/11 17:42:15;;;;;;;4.37;3.10;;;8.80;96.90;;;;;;10326788;28;20216;-78
2023/11/11 17:47:36;;;;;;;2.57;2.47;;;8.80;97.00;;;;;;10301966;28;20211;-79
2023/11/11 17:52:56;;;;;;;3.60;3.30;;;8.80;96.70;;;;;;10322586;28;20211;-78
2023/11/11 17:58:18;;;;;;;3.83;3.57;;;8.80;96.90;;;;;;10302026;28;20199;-78
2023/11/11 18:03:38;;;;;;;3.67;3.37;;;8.80;97.00;;;;;;10318893;28;20220;-78
2023/11/11 18:09:00;;;;;;;3.93;3.57;;;8.70;97.10;;;;;;10315928;28;20223;-78
2023/11/11 18:14:23;;;;;;;3.60;3.40;;;8.70;97.30;;;;;;10312566;28;20577;-78
2023/11/11 18:19:44;;;;;;;4.23;3.77;;;8.70;97.00;;;;;;10310667;28;20203;-78
2023/11/11 18:25:06;;;;;;;3.40;3.10;;;8.60;97.40;;;;;;10308639;28;20290;-78
2023/11/11 18:30:28;;;;;;;5.00;4.53;;;8.70;99.90;;;;;;10314480;28;20218;-78
2023/11/11 18:35:49;;;;;;;6.80;6.20;;;8.60;99.90;;;;;;10303382;28;20282;-77
2023/11/11 18:41:10;;;;;;;4.37;3.97;;;8.50;99.90;;;;;;10318874;28;20693;-78
2023/11/11 18:46:32;;;;;;;4.30;3.90;;;8.40;99.90;;;;;;10284237;28;20267;-78
2023/11/11 18:51:53;;;;;;;3.40;3.10;;;8.40;99.90;;;;;;10323012;28;20223;-77
2023/11/11 18:57:13;;;;;;;5.87;4.43;;;8.40;99.90;;;;;;10301646;28;20295;-78
2023/11/11 19:02:37;;;;;;;3.50;2.70;;;8.40;99.90;;;;;;10334650;28;20219;-78
2023/11/11 19:07:58;;;;;;;2.83;2.63;;;8.40;99.90;;;;;;10297514;28;20317;-77
2023/11/11 19:13:18;;;;;;;3.00;2.80;;;8.40;99.90;;;;;;10297956;28;20283;-77
2023/11/11 19:18:40;;;;;;;3.27;2.57;;;8.30;99.90;;;;;;10337024;28;20278;-78
2023/11/11 19:24:01;;;;;;;3.30;2.67;;;8.30;99.90;;;;;;10331120;28;20701;-77
2023/11/11 19:29:21;;;;;;;2.90;2.70;;;8.30;99.90;;;;;;10288353;28;20707;-77
2023/11/11 19:34:43;;;;;;;3.10;2.80;;;8.40;99.90;;;;;;10326750;28;20769;-78
2023/11/11 19:40:05;;;;;;;2.53;2.43;;;8.40;99.90;;;;;;10312173;28;20203;-78
2023/11/11 19:45:25;;;;;;;3.30;2.93;;;8.40;99.90;;;;;;10330596;28;20605;-77
2023/11/11 19:50:47;;;;;;;2.80;2.60;;;8.30;99.90;;;;;;10299188;28;20223;-77
2023/11/11 19:56:08;;;;;;;2.60;2.40;;;8.30;99.90;;;;;;10318628;28;20709;-76
2023/11/11 20:01:28;;;;;;;2.33;2.23;;;8.30;99.90;;;;;;10315475;28;20227;-77
2023/11/11 20:06:50;;;;;;;2.60;2.43;;;8.30;99.90;;;;;;10313563;28;20216;-77
2023/11/11 20:12:11;;;;;;;1.90;1.80;;;8.40;99.90;;;;;;10320442;28;20287;-78
2023/11/11 20:17:33;;;;;;;2.43;2.23;;;8.30;99.90;;;;;;10309194;28;20286;-78
2023/11/11 20:22:54;;;;;;;2.50;2.30;;;8.30;99.90;;;;;;10324347;28;20231;-77
2023/11/11 20:28:16;;;;;;;3.27;3.03;;;8.30;99.90;;;;;;10303320;28;20289;-78
2023/11/11 20:33:36;;;;;;;3.10;2.90;;;8.30;99.90;;;;;;10327859;28;20245;-78
2023/11/11 20:38:58;;;;;;;3.40;3.10;;;8.30;99.90;;;;;;10298881;28;20200;-78
2023/11/11 20:44:19;;;;;;;4.03;3.47;;;8.30;99.90;;;;;;10330978;28;20298;-78
2023/11/11 20:49:39;;;;;;;4.20;3.90;;;8.20;99.90;;;;;;10292485;28;20227;-77
2023/11/11 20:55:02;;;;;;;4.50;4.20;;;8.20;99.90;;;;;;10291107;28;20732;-75
2023/11/11 21:00:24;;;;;;;4.97;4.43;;;8.20;99.90;;;;;;10319653;28;20211;-77
2023/11/11 21:05:45;;;;;;;9.23;6.97;;;8.20;99.90;;;;;;10326588;28;20220;-78
2023/11/11 21:11:07;;;;;;;3.43;3.23;;;8.10;99.90;;;;;;10300252;28;20215;-78
2023/11/11 21:16:28;;;;;;;4.13;3.83;;;8.10;99.90;;;;;;10323240;28;20282;-77
2023/11/11 21:21:49;;;;;;;3.30;3.10;;;8.10;99.90;;;;;;10305204;28;20222;-79
2023/11/11 21:27:11;;;;;;;3.30;3.00;;;8.10;99.90;;;;;;10303182;28;20592;-78
2023/11/11 21:32:32;;;;;;;3.10;2.90;;;8.10;99.90;;;;;;10309929;28;20223;-78
2023/11/11 21:37:52;;;;;;;2.97;2.70;;;8.00;99.90;;;;;;10299574;28;20627;-78
2023/11/11 21:43:14;;;;;;;2.63;2.40;;;8.00;99.90;;;;;;10312684;28;20713;-78
2023/11/11 21:48:36;;;;;;;2.60;2.40;;;8.10;99.90;;;;;;10308686;28;20337;-78
2023/11/11 21:53:57;;;;;;;2.57;2.37;;;8.10;99.90;;;;;;10317143;28;20220;-78
2023/11/11 21:59:19;;;;;;;2.07;1.93;;;8.20;99.90;;;;;;10304644;28;20208;-78
2023/11/11 22:04:40;;;;;;;3.23;2.63;;;8.40;99.90;;;;;;10322087;28;20215;-78
2023/11/11 22:10:00;;;;;;;3.50;2.63;;;8.50;99.90;;;;;;10298295;28;20216;-78
2023/11/11 22:15:22;;;;;;;2.77;2.57;;;8.60;99.90;;;;;;10324307;28;20199;-77
2023/11/11 22:20:47;;;;;;;2.60;2.37;;;8.60;99.90;;;;;;10295036;28;20255;-77
2023/11/11 22:26:14;;;;;;;2.80;2.60;;;8.50;99.90;;;;;;10330247;28;20195;-78
2023/11/11 22:31:36;;;;;;;2.87;2.67;;;8.50;99.90;;;;;;10294410;28;20253;-78
2023/11/11 22:36:56;;;;;;;2.67;2.47;;;8.40;99.90;;;;;;10338834;28;20643;-78
2023/11/11 22:42:17;;;;;;;2.73;2.53;;;8.40;99.90;;;;;;10332716;28;20211;-78
2023/11/11 22:47:40;;;;;;;3.47;3.17;;;8.30;99.90;;;;;;10306719;28;20223;-78
2023/11/11 22:53:00;;;;;;;3.63;3.07;;;8.20;99.90;;;;;;10330616;28;20220;-77
2023/11/11 22:58:21;;;;;;;2.73;2.60;;;8.20;99.90;;;;;;10317055;28;20195;-78
2023/11/11 23:03:43;;;;;;;2.80;2.60;;;8.20;99.90;;;;;;10328430;28;20708;-78
2023/11/11 23:09:06;;;;;;;5.30;3.00;;;8.30;99.90;;;;;;10305327;28;20335;-79
2023/11/11 23:14:28;;;;;;;3.40;3.10;;;8.30;99.90;;;;;;10329167;28;20231;-78
2023/11/11 23:19:50;;;;;;;2.87;2.67;;;8.30;99.90;;;;;;10326199;28;20227;-78
2023/11/11 23:25:10;;;;;;;3.20;2.90;;;8.30;99.90;;;;;;10319092;28;20204;-79
2023/11/11 23:30:32;;;;;;;4.30;2.97;;;8.40;99.90;;;;;;10330239;28;20223;-79
2023/11/11 23:35:54;;;;;;;2.50;2.40;;;8.40;99.90;;;;;;10326149;28;20203;-80
2023/11/11 23:41:14;;;;;;;2.93;2.73;;;8.50;99.90;;;;;;10332986;28;20215;-77
2023/11/11 23:46:35;;;;;;;3.13;2.87;;;8.50;99.90;;;;;;10314313;28;20641;-79
2023/11/11 23:51:57;;;;;;;2.47;2.27;;;8.50;99.90;;;;;;10343689;28;20222;-79
2023/11/11 23:57:17;;;;;;;2.70;2.60;;;8.50;99.90;;;;;;10285456;28;20259;-78
